sensor_id;sensor_type;location;lat;lon;timestamp;P1;durP1;ratioP1;P2;durP2;ratioP2
57023;SDS011;42916;54.346;18.562;2023-01-28T00:01:39;6.10;;;3.80;;
57023;SDS011;42916;54.346;18.562;2023-01-28T00:04:06;8.00;;;3.90;;
57023;SDS011;42916;54.346;18.562;2023-01-28T00:06:33;7.30;;;3.60;;
57023;SDS011;42916;54.346;18.562;2023-01-28T00:09:01;7.60;;;3.60;;
57023;SDS011;42916;54.346;18.562;2023-01-28T00:11:28;7.70;;;3.50;;
57023;SDS011;42916;54.346;18.562;2023-01-28T00:13:54;7.00;;;4.40;;
57023;SDS011;42916;54.346;18.562;2023-01-28T00:16:21;9.40;;;4.00;;
57023;SDS011;42916;54.346;18.562;2023-01-28T00:18:48;6.30;;;3.60;;
57023;SDS011;42916;54.346;18.562;2023-01-28T00:21:15;7.20;;;3.80;;
57023;SDS011;42916;54.346;18.562;2023-01-28T00:23:42;8.30;;;3.80;;
57023;SDS011;42916;54.346;18.562;2023-01-28T00:26:13;7.10;;;3.60;;
57023;SDS011;42916;54.346;18.562;2023-01-28T00:28:41;8.10;;;4.10;;
57023;SDS011;42916;54.346;18.562;2023-01-28T00:31:10;6.90;;;4.00;;
57023;SDS011;42916;54.346;18.562;2023-01-28T00:33:42;9.20;;;3.90;;
57023;SDS011;42916;54.346;18.562;2023-01-28T00:36:11;6.80;;;3.90;;
57023;SDS011;42916;54.346;18.562;2023-01-28T00:38:38;6.00;;;3.80;;
57023;SDS011;42916;54.346;18.562;2023-01-28T00:41:09;6.80;;;3.80;;
57023;SDS011;42916;54.346;18.562;2023-01-28T00:43:42;10.10;;;4.20;;
57023;SDS011;42916;54.346;18.562;2023-01-28T00:46:10;7.50;;;4.00;;
57023;SDS011;42916;54.346;18.562;2023-01-28T00:48:39;9.60;;;4.10;;
57023;SDS011;42916;54.346;18.562;2023-01-28T00:51:07;7.20;;;3.90;;
57023;SDS011;42916;54.346;18.562;2023-01-28T00:53:36;7.80;;;4.40;;
57023;SDS011;42916;54.346;18.562;2023-01-28T00:56:05;7.80;;;4.40;;
57023;SDS011;42916;54.346;18.562;2023-01-28T00:58:33;7.90;;;3.90;;
57023;SDS011;42916;54.346;18.562;2023-01-28T01:01:09;8.90;;;4.00;;
57023;SDS011;42916;54.346;18.562;2023-01-28T01:03:38;6.80;;;3.50;;
57023;SDS011;42916;54.346;18.562;2023-01-28T01:06:05;4.90;;;3.40;;
57023;SDS011;42916;54.346;18.562;2023-01-28T01:08:33;7.70;;;4.00;;
57023;SDS011;42916;54.346;18.562;2023-01-28T01:11:01;8.20;;;4.30;;
57023;SDS011;42916;54.346;18.562;2023-01-28T01:18:28;6.70;;;3.50;;
57023;SDS011;42916;54.346;18.562;2023-01-28T01:20:55;6.80;;;4.00;;
57023;SDS011;42916;54.346;18.562;2023-01-28T01:25:52;6.30;;;3.20;;
57023;SDS011;42916;54.346;18.562;2023-01-28T01:28:19;8.40;;;3.40;;
57023;SDS011;42916;54.346;18.562;2023-01-28T01:30:47;8.10;;;3.40;;
57023;SDS011;42916;54.346;18.562;2023-01-28T01:33:15;7.20;;;3.10;;
57023;SDS011;42916;54.346;18.562;2023-01-28T01:35:42;6.20;;;3.30;;
57023;SDS011;42916;54.346;18.562;2023-01-28T01:38:09;6.40;;;3.40;;
57023;SDS011;42916;54.346;18.562;2023-01-28T01:40:36;4.90;;;3.00;;
57023;SDS011;42916;54.346;18.562;2023-01-28T01:43:08;5.50;;;2.50;;
57023;SDS011;42916;54.346;18.562;2023-01-28T01:45:41;7.40;;;3.50;;
57023;SDS011;42916;54.346;18.562;2023-01-28T01:48:15;4.70;;;3.00;;
57023;SDS011;42916;54.346;18.562;2023-01-28T01:50:48;4.60;;;3.10;;
57023;SDS011;42916;54.346;18.562;2023-01-28T01:53:21;6.20;;;3.10;;
57023;SDS011;42916;54.346;18.562;2023-01-28T01:58:20;5.80;;;2.70;;
57023;SDS011;42916;54.346;18.562;2023-01-28T02:00:51;5.90;;;3.10;;
57023;SDS011;42916;54.346;18.562;2023-01-28T02:03:19;4.60;;;2.60;;
57023;SDS011;42916;54.346;18.562;2023-01-28T02:05:52;4.50;;;3.20;;
57023;SDS011;42916;54.346;18.562;2023-01-28T02:08:19;5.10;;;3.30;;
57023;SDS011;42916;54.346;18.562;2023-01-28T02:11:03;4.60;;;3.30;;
57023;SDS011;42916;54.346;18.562;2023-01-28T02:13:37;6.50;;;3.90;;
57023;SDS011;42916;54.346;18.562;2023-01-28T02:16:06;4.70;;;3.00;;
57023;SDS011;42916;54.346;18.562;2023-01-28T02:18:35;6.20;;;3.40;;
57023;SDS011;42916;54.346;18.562;2023-01-28T02:32:18;7.40;;;3.40;;
57023;SDS011;42916;54.346;18.562;2023-01-28T02:35:00;5.80;;;3.10;;
57023;SDS011;42916;54.346;18.562;2023-01-28T02:40:21;11.80;;;5.90;;
57023;SDS011;42916;54.346;18.562;2023-01-28T02:42:56;11.50;;;6.30;;
57023;SDS011;42916;54.346;18.562;2023-01-28T02:45:30;13.30;;;7.20;;
57023;SDS011;42916;54.346;18.562;2023-01-28T02:48:18;14.90;;;7.80;;
57023;SDS011;42916;54.346;18.562;2023-01-28T02:50:51;18.30;;;7.00;;
57023;SDS011;42916;54.346;18.562;2023-01-28T02:53:30;8.70;;;4.60;;
57023;SDS011;42916;54.346;18.562;2023-01-28T02:56:29;6.30;;;3.70;;
57023;SDS011;42916;54.346;18.562;2023-01-28T02:59:25;8.30;;;4.40;;
57023;SDS011;42916;54.346;18.562;2023-01-28T03:02:16;6.80;;;4.00;;
57023;SDS011;42916;54.346;18.562;2023-01-28T03:07:33;11.20;;;4.30;;
57023;SDS011;42916;54.346;18.562;2023-01-28T03:10:04;9.10;;;4.10;;
57023;SDS011;42916;54.346;18.562;2023-01-28T03:12:36;7.80;;;4.00;;
57023;SDS011;42916;54.346;18.562;2023-01-28T03:15:26;9.00;;;4.60;;
57023;SDS011;42916;54.346;18.562;2023-01-28T03:18:24;8.00;;;3.60;;
57023;SDS011;42916;54.346;18.562;2023-01-28T03:21:27;7.30;;;3.90;;
57023;SDS011;42916;54.346;18.562;2023-01-28T03:30:39;8.00;;;4.00;;
57023;SDS011;42916;54.346;18.562;2023-01-28T03:33:52;6.50;;;3.50;;
57023;SDS011;42916;54.346;18.562;2023-01-28T03:36:39;8.00;;;4.30;;
57023;SDS011;42916;54.346;18.562;2023-01-28T03:39:24;8.70;;;4.20;;
57023;SDS011;42916;54.346;18.562;2023-01-28T03:41:58;7.60;;;4.50;;
57023;SDS011;42916;54.346;18.562;2023-01-28T03:44:34;11.40;;;5.30;;
57023;SDS011;42916;54.346;18.562;2023-01-28T03:47:24;10.80;;;4.90;;
57023;SDS011;42916;54.346;18.562;2023-01-28T03:49:53;7.50;;;3.90;;
57023;SDS011;42916;54.346;18.562;2023-01-28T03:52:23;9.00;;;4.60;;
57023;SDS011;42916;54.346;18.562;2023-01-28T03:55:16;7.50;;;4.20;;
57023;SDS011;42916;54.346;18.562;2023-01-28T03:57:43;8.80;;;4.50;;
57023;SDS011;42916;54.346;18.562;2023-01-28T04:00:11;8.00;;;4.50;;
57023;SDS011;42916;54.346;18.562;2023-01-28T04:02:42;8.80;;;4.50;;
57023;SDS011;42916;54.346;18.562;2023-01-28T04:05:11;9.80;;;4.70;;
57023;SDS011;42916;54.346;18.562;2023-01-28T04:07:53;5.90;;;4.10;;
57023;SDS011;42916;54.346;18.562;2023-01-28T04:10:39;8.30;;;4.30;;
57023;SDS011;42916;54.346;18.562;2023-01-28T04:13:36;6.80;;;3.40;;
57023;SDS011;42916;54.346;18.562;2023-01-28T04:16:03;8.20;;;4.30;;
57023;SDS011;42916;54.346;18.562;2023-01-28T04:18:37;7.90;;;4.40;;
57023;SDS011;42916;54.346;18.562;2023-01-28T04:21:04;7.40;;;4.00;;
57023;SDS011;42916;54.346;18.562;2023-01-28T04:23:31;6.80;;;4.10;;
57023;SDS011;42916;54.346;18.562;2023-01-28T04:25:59;8.50;;;4.80;;
57023;SDS011;42916;54.346;18.562;2023-01-28T04:28:26;6.60;;;4.20;;
57023;SDS011;42916;54.346;18.562;2023-01-28T04:30:53;7.40;;;3.70;;
57023;SDS011;42916;54.346;18.562;2023-01-28T04:33:32;7.80;;;4.00;;
57023;SDS011;42916;54.346;18.562;2023-01-28T04:36:10;7.00;;;4.30;;
57023;SDS011;42916;54.346;18.562;2023-01-28T04:39:05;6.90;;;4.50;;
57023;SDS011;42916;54.346;18.562;2023-01-28T04:41:37;7.30;;;4.40;;
57023;SDS011;42916;54.346;18.562;2023-01-28T04:44:18;7.10;;;4.40;;
57023;SDS011;42916;54.346;18.562;2023-01-28T04:46:56;10.60;;;4.40;;
57023;SDS011;42916;54.346;18.562;2023-01-28T04:49:54;16.10;;;6.00;;
57023;SDS011;42916;54.346;18.562;2023-01-28T04:52:32;15.50;;;5.40;;
57023;SDS011;42916;54.346;18.562;2023-01-28T04:55:26;14.40;;;5.20;;
57023;SDS011;42916;54.346;18.562;2023-01-28T04:57:53;13.20;;;7.00;;
57023;SDS011;42916;54.346;18.562;2023-01-28T05:00:20;12.50;;;5.50;;
57023;SDS011;42916;54.346;18.562;2023-01-28T05:02:47;14.60;;;5.40;;
57023;SDS011;42916;54.346;18.562;2023-01-28T05:05:14;14.50;;;6.20;;
57023;SDS011;42916;54.346;18.562;2023-01-28T05:08:01;12.70;;;5.10;;
57023;SDS011;42916;54.346;18.562;2023-01-28T05:10:29;10.30;;;4.90;;
57023;SDS011;42916;54.346;18.562;2023-01-28T05:12:56;8.50;;;5.10;;
57023;SDS011;42916;54.346;18.562;2023-01-28T05:15:22;10.10;;;5.30;;
57023;SDS011;42916;54.346;18.562;2023-01-28T05:17:53;7.50;;;5.00;;
57023;SDS011;42916;54.346;18.562;2023-01-28T05:20:22;6.80;;;4.70;;
57023;SDS011;42916;54.346;18.562;2023-01-28T05:22:50;8.30;;;4.80;;
57023;SDS011;42916;54.346;18.562;2023-01-28T05:25:22;10.60;;;4.80;;
57023;SDS011;42916;54.346;18.562;2023-01-28T05:27:50;8.20;;;4.60;;
57023;SDS011;42916;54.346;18.562;2023-01-28T05:30:18;8.50;;;4.80;;
57023;SDS011;42916;54.346;18.562;2023-01-28T05:32:46;8.10;;;4.70;;
57023;SDS011;42916;54.346;18.562;2023-01-28T05:35:16;9.10;;;4.70;;
57023;SDS011;42916;54.346;18.562;2023-01-28T05:37:43;9.60;;;5.10;;
57023;SDS011;42916;54.346;18.562;2023-01-28T05:40:12;7.40;;;4.60;;
57023;SDS011;42916;54.346;18.562;2023-01-28T05:42:39;8.30;;;5.20;;
57023;SDS011;42916;54.346;18.562;2023-01-28T05:45:26;10.70;;;4.90;;
57023;SDS011;42916;54.346;18.562;2023-01-28T05:50:45;8.30;;;4.80;;
57023;SDS011;42916;54.346;18.562;2023-01-28T05:53:36;11.20;;;5.20;;
57023;SDS011;42916;54.346;18.562;2023-01-28T05:56:03;9.60;;;5.10;;
57023;SDS011;42916;54.346;18.562;2023-01-28T05:58:31;11.50;;;4.50;;
57023;SDS011;42916;54.346;18.562;2023-01-28T06:01:01;9.70;;;4.80;;
57023;SDS011;42916;54.346;18.562;2023-01-28T06:03:35;9.80;;;5.30;;
57023;SDS011;42916;54.346;18.562;2023-01-28T06:06:02;8.30;;;4.90;;
57023;SDS011;42916;54.346;18.562;2023-01-28T06:08:30;7.80;;;5.30;;
57023;SDS011;42916;54.346;18.562;2023-01-28T06:10:58;10.70;;;5.30;;
57023;SDS011;42916;54.346;18.562;2023-01-28T06:13:25;9.90;;;5.30;;
57023;SDS011;42916;54.346;18.562;2023-01-28T06:16:23;9.10;;;5.30;;
57023;SDS011;42916;54.346;18.562;2023-01-28T06:19:11;9.50;;;5.80;;
57023;SDS011;42916;54.346;18.562;2023-01-28T06:21:37;7.80;;;4.90;;
57023;SDS011;42916;54.346;18.562;2023-01-28T06:24:04;9.40;;;4.40;;
57023;SDS011;42916;54.346;18.562;2023-01-28T06:26:31;8.70;;;4.70;;
57023;SDS011;42916;54.346;18.562;2023-01-28T06:28:58;10.00;;;4.90;;
57023;SDS011;42916;54.346;18.562;2023-01-28T06:31:25;7.10;;;4.20;;
57023;SDS011;42916;54.346;18.562;2023-01-28T06:33:52;9.60;;;5.10;;
57023;SDS011;42916;54.346;18.562;2023-01-28T06:36:18;10.70;;;4.90;;
57023;SDS011;42916;54.346;18.562;2023-01-28T06:38:45;9.20;;;4.70;;
57023;SDS011;42916;54.346;18.562;2023-01-28T06:41:12;8.10;;;4.30;;
57023;SDS011;42916;54.346;18.562;2023-01-28T06:43:39;7.20;;;4.10;;
57023;SDS011;42916;54.346;18.562;2023-01-28T06:46:06;11.10;;;4.30;;
57023;SDS011;42916;54.346;18.562;2023-01-28T06:48:33;9.00;;;4.70;;
57023;SDS011;42916;54.346;18.562;2023-01-28T06:50:59;8.20;;;4.20;;
57023;SDS011;42916;54.346;18.562;2023-01-28T06:53:26;7.50;;;4.20;;
57023;SDS011;42916;54.346;18.562;2023-01-28T06:55:53;9.10;;;5.00;;
57023;SDS011;42916;54.346;18.562;2023-01-28T06:58:20;9.40;;;5.10;;
57023;SDS011;42916;54.346;18.562;2023-01-28T07:00:47;9.00;;;4.70;;
57023;SDS011;42916;54.346;18.562;2023-01-28T07:03:14;8.10;;;5.10;;
57023;SDS011;42916;54.346;18.562;2023-01-28T07:05:41;7.90;;;4.70;;
57023;SDS011;42916;54.346;18.562;2023-01-28T07:08:08;8.40;;;4.40;;
57023;SDS011;42916;54.346;18.562;2023-01-28T07:10:35;7.80;;;4.70;;
57023;SDS011;42916;54.346;18.562;2023-01-28T07:13:02;8.30;;;4.70;;
57023;SDS011;42916;54.346;18.562;2023-01-28T07:15:29;11.20;;;5.00;;
57023;SDS011;42916;54.346;18.562;2023-01-28T07:17:56;12.60;;;5.20;;
57023;SDS011;42916;54.346;18.562;2023-01-28T07:20:23;12.40;;;5.30;;
57023;SDS011;42916;54.346;18.562;2023-01-28T07:22:50;9.10;;;5.00;;
57023;SDS011;42916;54.346;18.562;2023-01-28T07:25:16;9.50;;;4.80;;
57023;SDS011;42916;54.346;18.562;2023-01-28T07:27:50;11.10;;;5.20;;
57023;SDS011;42916;54.346;18.562;2023-01-28T07:30:19;12.50;;;6.00;;
57023;SDS011;42916;54.346;18.562;2023-01-28T07:32:51;11.00;;;6.50;;
57023;SDS011;42916;54.346;18.562;2023-01-28T07:35:20;14.70;;;7.20;;
57023;SDS011;42916;54.346;18.562;2023-01-28T07:37:54;8.30;;;5.20;;
57023;SDS011;42916;54.346;18.562;2023-01-28T07:40:22;12.80;;;7.00;;
57023;SDS011;42916;54.346;18.562;2023-01-28T07:42:50;14.20;;;7.70;;
57023;SDS011;42916;54.346;18.562;2023-01-28T07:45:22;14.60;;;7.00;;
57023;SDS011;42916;54.346;18.562;2023-01-28T07:47:54;12.10;;;6.30;;
57023;SDS011;42916;54.346;18.562;2023-01-28T07:50:22;17.90;;;7.00;;
57023;SDS011;42916;54.346;18.562;2023-01-28T07:52:50;20.90;;;7.60;;
57023;SDS011;42916;54.346;18.562;2023-01-28T07:55:17;19.50;;;9.30;;
57023;SDS011;42916;54.346;18.562;2023-01-28T07:57:50;15.30;;;7.20;;
57023;SDS011;42916;54.346;18.562;2023-01-28T08:00:22;18.50;;;8.40;;
57023;SDS011;42916;54.346;18.562;2023-01-28T08:02:54;18.80;;;9.20;;
57023;SDS011;42916;54.346;18.562;2023-01-28T08:05:22;17.20;;;7.70;;
57023;SDS011;42916;54.346;18.562;2023-01-28T08:07:50;18.00;;;7.50;;
57023;SDS011;42916;54.346;18.562;2023-01-28T08:10:16;14.60;;;7.40;;
57023;SDS011;42916;54.346;18.562;2023-01-28T08:12:51;15.50;;;8.40;;
57023;SDS011;42916;54.346;18.562;2023-01-28T08:15:21;19.70;;;9.30;;
57023;SDS011;42916;54.346;18.562;2023-01-28T08:17:49;17.00;;;8.60;;
57023;SDS011;42916;54.346;18.562;2023-01-28T08:20:16;21.70;;;8.50;;
57023;SDS011;42916;54.346;18.562;2023-01-28T08:22:43;33.40;;;13.10;;
57023;SDS011;42916;54.346;18.562;2023-01-28T08:25:10;48.60;;;18.70;;
57023;SDS011;42916;54.346;18.562;2023-01-28T08:27:36;35.20;;;14.60;;
57023;SDS011;42916;54.346;18.562;2023-01-28T08:30:03;30.40;;;12.20;;
57023;SDS011;42916;54.346;18.562;2023-01-28T08:32:31;24.20;;;10.60;;
57023;SDS011;42916;54.346;18.562;2023-01-28T08:34:58;27.30;;;11.80;;
57023;SDS011;42916;54.346;18.562;2023-01-28T08:37:25;34.30;;;14.30;;
57023;SDS011;42916;54.346;18.562;2023-01-28T08:39:52;29.30;;;13.60;;
57023;SDS011;42916;54.346;18.562;2023-01-28T08:42:19;14.40;;;6.50;;
57023;SDS011;42916;54.346;18.562;2023-01-28T08:44:45;13.90;;;6.50;;
57023;SDS011;42916;54.346;18.562;2023-01-28T08:47:13;15.10;;;6.00;;
57023;SDS011;42916;54.346;18.562;2023-01-28T08:49:40;15.80;;;7.00;;
57023;SDS011;42916;54.346;18.562;2023-01-28T08:52:07;13.80;;;6.60;;
57023;SDS011;42916;54.346;18.562;2023-01-28T08:54:34;11.40;;;5.60;;
57023;SDS011;42916;54.346;18.562;2023-01-28T08:57:02;10.20;;;5.30;;
57023;SDS011;42916;54.346;18.562;2023-01-28T08:59:29;10.10;;;5.30;;
57023;SDS011;42916;54.346;18.562;2023-01-28T09:01:56;13.20;;;5.70;;
57023;SDS011;42916;54.346;18.562;2023-01-28T09:04:22;14.40;;;6.80;;
57023;SDS011;42916;54.346;18.562;2023-01-28T09:06:49;11.10;;;6.50;;
57023;SDS011;42916;54.346;18.562;2023-01-28T09:09:16;16.00;;;9.60;;
57023;SDS011;42916;54.346;18.562;2023-01-28T09:11:43;8.20;;;5.40;;
57023;SDS011;42916;54.346;18.562;2023-01-28T09:14:10;8.20;;;3.30;;
57023;SDS011;42916;54.346;18.562;2023-01-28T09:16:36;9.60;;;4.80;;
57023;SDS011;42916;54.346;18.562;2023-01-28T09:19:03;4.20;;;2.80;;
57023;SDS011;42916;54.346;18.562;2023-01-28T09:21:30;7.10;;;3.10;;
57023;SDS011;42916;54.346;18.562;2023-01-28T09:23:57;9.60;;;4.90;;
57023;SDS011;42916;54.346;18.562;2023-01-28T09:26:24;11.70;;;5.80;;
57023;SDS011;42916;54.346;18.562;2023-01-28T09:28:51;12.10;;;5.80;;
57023;SDS011;42916;54.346;18.562;2023-01-28T09:31:17;15.40;;;6.60;;
57023;SDS011;42916;54.346;18.562;2023-01-28T09:33:45;13.60;;;6.50;;
57023;SDS011;42916;54.346;18.562;2023-01-28T09:36:13;14.60;;;7.10;;
57023;SDS011;42916;54.346;18.562;2023-01-28T09:38:40;20.80;;;8.60;;
57023;SDS011;42916;54.346;18.562;2023-01-28T09:41:26;13.10;;;7.60;;
57023;SDS011;42916;54.346;18.562;2023-01-28T09:46:35;10.50;;;5.40;;
57023;SDS011;42916;54.346;18.562;2023-01-28T09:51:41;13.20;;;5.80;;
57023;SDS011;42916;54.346;18.562;2023-01-28T09:54:23;11.50;;;5.60;;
57023;SDS011;42916;54.346;18.562;2023-01-28T09:59:53;9.30;;;5.70;;
57023;SDS011;42916;54.346;18.562;2023-01-28T10:08:05;14.40;;;7.00;;
57023;SDS011;42916;54.346;18.562;2023-01-28T10:10:51;11.40;;;5.60;;
57023;SDS011;42916;54.346;18.562;2023-01-28T10:13:23;9.70;;;5.60;;
57023;SDS011;42916;54.346;18.562;2023-01-28T10:16:05;10.00;;;5.90;;
57023;SDS011;42916;54.346;18.562;2023-01-28T10:18:49;8.80;;;4.60;;
57023;SDS011;42916;54.346;18.562;2023-01-28T10:21:23;10.90;;;4.90;;
57023;SDS011;42916;54.346;18.562;2023-01-28T10:24:00;9.50;;;4.90;;
57023;SDS011;42916;54.346;18.562;2023-01-28T10:26:35;15.40;;;6.50;;
57023;SDS011;42916;54.346;18.562;2023-01-28T10:29:10;12.10;;;5.50;;
57023;SDS011;42916;54.346;18.562;2023-01-28T10:31:58;10.90;;;5.40;;
57023;SDS011;42916;54.346;18.562;2023-01-28T10:34:29;6.60;;;3.60;;
57023;SDS011;42916;54.346;18.562;2023-01-28T10:36:56;6.30;;;3.80;;
57023;SDS011;42916;54.346;18.562;2023-01-28T10:39:24;8.40;;;4.20;;
57023;SDS011;42916;54.346;18.562;2023-01-28T10:41:52;11.00;;;5.60;;
57023;SDS011;42916;54.346;18.562;2023-01-28T10:44:22;9.50;;;4.60;;
57023;SDS011;42916;54.346;18.562;2023-01-28T10:46:58;8.80;;;4.40;;
57023;SDS011;42916;54.346;18.562;2023-01-28T10:49:30;7.30;;;4.00;;
57023;SDS011;42916;54.346;18.562;2023-01-28T10:51:59;9.90;;;4.90;;
57023;SDS011;42916;54.346;18.562;2023-01-28T10:54:36;9.90;;;3.70;;
57023;SDS011;42916;54.346;18.562;2023-01-28T10:57:04;8.50;;;4.20;;
57023;SDS011;42916;54.346;18.562;2023-01-28T10:59:37;8.90;;;4.70;;
57023;SDS011;42916;54.346;18.562;2023-01-28T11:05:00;14.00;;;5.70;;
57023;SDS011;42916;54.346;18.562;2023-01-28T11:07:46;16.40;;;6.80;;
57023;SDS011;42916;54.346;18.562;2023-01-28T11:10:31;16.00;;;6.40;;
57023;SDS011;42916;54.346;18.562;2023-01-28T11:13:02;16.90;;;6.50;;
57023;SDS011;42916;54.346;18.562;2023-01-28T11:15:31;11.70;;;5.50;;
57023;SDS011;42916;54.346;18.562;2023-01-28T11:18:04;15.20;;;5.90;;
57023;SDS011;42916;54.346;18.562;2023-01-28T11:20:42;10.30;;;4.70;;
57023;SDS011;42916;54.346;18.562;2023-01-28T11:23:27;10.30;;;5.50;;
57023;SDS011;42916;54.346;18.562;2023-01-28T11:29:03;7.10;;;3.70;;
57023;SDS011;42916;54.346;18.562;2023-01-28T11:31:36;8.30;;;4.00;;
57023;SDS011;42916;54.346;18.562;2023-01-28T11:34:10;6.80;;;3.90;;
57023;SDS011;42916;54.346;18.562;2023-01-28T11:36:49;7.80;;;3.30;;
57023;SDS011;42916;54.346;18.562;2023-01-28T11:39:19;9.80;;;4.30;;
57023;SDS011;42916;54.346;18.562;2023-01-28T11:41:50;7.60;;;4.10;;
57023;SDS011;42916;54.346;18.562;2023-01-28T11:44:24;7.80;;;4.30;;
57023;SDS011;42916;54.346;18.562;2023-01-28T11:55:10;16.30;;;7.00;;
57023;SDS011;42916;54.346;18.562;2023-01-28T12:09:28;10.40;;;5.70;;
57023;SDS011;42916;54.346;18.562;2023-01-28T12:26:10;13.50;;;6.40;;
57023;SDS011;42916;54.346;18.562;2023-01-28T12:34:50;11.60;;;6.30;;
57023;SDS011;42916;54.346;18.562;2023-01-28T12:40:29;11.30;;;6.50;;
57023;SDS011;42916;54.346;18.562;2023-01-28T12:45:54;19.90;;;8.60;;
57023;SDS011;42916;54.346;18.562;2023-01-28T12:48:39;19.10;;;9.40;;
57023;SDS011;42916;54.346;18.562;2023-01-28T12:51:13;23.10;;;11.10;;
57023;SDS011;42916;54.346;18.562;2023-01-28T12:53:56;20.20;;;9.70;;
57023;SDS011;42916;54.346;18.562;2023-01-28T12:56:33;19.50;;;8.50;;
57023;SDS011;42916;54.346;18.562;2023-01-28T12:59:04;19.20;;;8.90;;
57023;SDS011;42916;54.346;18.562;2023-01-28T13:01:43;12.80;;;7.80;;
57023;SDS011;42916;54.346;18.562;2023-01-28T13:04:30;15.80;;;8.20;;
57023;SDS011;42916;54.346;18.562;2023-01-28T13:07:07;15.40;;;7.90;;
57023;SDS011;42916;54.346;18.562;2023-01-28T13:10:00;21.30;;;9.40;;
57023;SDS011;42916;54.346;18.562;2023-01-28T13:12:42;17.80;;;8.60;;
57023;SDS011;42916;54.346;18.562;2023-01-28T13:15:11;24.90;;;10.90;;
57023;SDS011;42916;54.346;18.562;2023-01-28T13:17:52;20.10;;;9.70;;
57023;SDS011;42916;54.346;18.562;2023-01-28T13:21:09;16.30;;;9.40;;
57023;SDS011;42916;54.346;18.562;2023-01-28T13:26:07;19.70;;;9.30;;
57023;SDS011;42916;54.346;18.562;2023-01-28T13:28:44;19.70;;;9.80;;
57023;SDS011;42916;54.346;18.562;2023-01-28T13:31:15;16.20;;;8.10;;
57023;SDS011;42916;54.346;18.562;2023-01-28T13:33:45;16.40;;;8.20;;
57023;SDS011;42916;54.346;18.562;2023-01-28T13:36:28;18.70;;;8.80;;
57023;SDS011;42916;54.346;18.562;2023-01-28T13:38:59;19.30;;;9.50;;
57023;SDS011;42916;54.346;18.562;2023-01-28T13:44:32;18.50;;;9.90;;
57023;SDS011;42916;54.346;18.562;2023-01-28T13:49:41;18.00;;;9.60;;
57023;SDS011;42916;54.346;18.562;2023-01-28T13:54:45;20.30;;;9.60;;
57023;SDS011;42916;54.346;18.562;2023-01-28T14:11:33;18.20;;;8.60;;
57023;SDS011;42916;54.346;18.562;2023-01-28T14:14:29;17.70;;;9.60;;
57023;SDS011;42916;54.346;18.562;2023-01-28T14:17:27;21.20;;;9.90;;
57023;SDS011;42916;54.346;18.562;2023-01-28T14:19:59;21.90;;;10.50;;
57023;SDS011;42916;54.346;18.562;2023-01-28T14:22:27;18.60;;;10.10;;
57023;SDS011;42916;54.346;18.562;2023-01-28T14:24:54;18.70;;;10.20;;
57023;SDS011;42916;54.346;18.562;2023-01-28T14:27:26;19.50;;;9.70;;
57023;SDS011;42916;54.346;18.562;2023-01-28T14:32:30;18.70;;;9.70;;
57023;SDS011;42916;54.346;18.562;2023-01-28T14:35:00;23.10;;;11.30;;
57023;SDS011;42916;54.346;18.562;2023-01-28T14:37:33;23.00;;;10.80;;
57023;SDS011;42916;54.346;18.562;2023-01-28T14:40:05;21.50;;;11.40;;
57023;SDS011;42916;54.346;18.562;2023-01-28T14:42:37;30.50;;;12.90;;
57023;SDS011;42916;54.346;18.562;2023-01-28T14:48:05;27.70;;;11.60;;
57023;SDS011;42916;54.346;18.562;2023-01-28T14:50:57;23.70;;;12.30;;
57023;SDS011;42916;54.346;18.562;2023-01-28T14:58:59;28.20;;;12.30;;
57023;SDS011;42916;54.346;18.562;2023-01-28T15:01:30;31.50;;;14.00;;
57023;SDS011;42916;54.346;18.562;2023-01-28T15:03:57;23.90;;;13.10;;
57023;SDS011;42916;54.346;18.562;2023-01-28T15:06:29;23.90;;;11.70;;
57023;SDS011;42916;54.346;18.562;2023-01-28T15:09:06;28.60;;;12.60;;
57023;SDS011;42916;54.346;18.562;2023-01-28T15:11:38;28.50;;;12.80;;
57023;SDS011;42916;54.346;18.562;2023-01-28T15:17:11;31.90;;;12.00;;
57023;SDS011;42916;54.346;18.562;2023-01-28T15:19:47;28.40;;;12.40;;
57023;SDS011;42916;54.346;18.562;2023-01-28T15:22:14;21.70;;;9.40;;
57023;SDS011;42916;54.346;18.562;2023-01-28T15:24:41;20.50;;;9.20;;
57023;SDS011;42916;54.346;18.562;2023-01-28T15:27:21;21.70;;;10.00;;
57023;SDS011;42916;54.346;18.562;2023-01-28T15:29:57;23.70;;;10.20;;
57023;SDS011;42916;54.346;18.562;2023-01-28T15:32:26;17.40;;;8.10;;
57023;SDS011;42916;54.346;18.562;2023-01-28T15:34:55;16.70;;;7.80;;
57023;SDS011;42916;54.346;18.562;2023-01-28T15:37:25;20.00;;;9.00;;
57023;SDS011;42916;54.346;18.562;2023-01-28T15:40:02;25.50;;;10.80;;
57023;SDS011;42916;54.346;18.562;2023-01-28T15:42:33;23.90;;;10.30;;
57023;SDS011;42916;54.346;18.562;2023-01-28T15:45:00;21.50;;;9.70;;
57023;SDS011;42916;54.346;18.562;2023-01-28T15:47:31;22.50;;;10.30;;
57023;SDS011;42916;54.346;18.562;2023-01-28T15:50:02;20.90;;;9.80;;
57023;SDS011;42916;54.346;18.562;2023-01-28T15:52:35;23.40;;;10.70;;
57023;SDS011;42916;54.346;18.562;2023-01-28T15:55:05;27.00;;;13.60;;
57023;SDS011;42916;54.346;18.562;2023-01-28T15:57:34;31.50;;;14.40;;
57023;SDS011;42916;54.346;18.562;2023-01-28T16:02:41;36.30;;;15.40;;
57023;SDS011;42916;54.346;18.562;2023-01-28T16:08:28;26.80;;;13.70;;
57023;SDS011;42916;54.346;18.562;2023-01-28T16:10:59;32.00;;;13.10;;
57023;SDS011;42916;54.346;18.562;2023-01-28T16:13:26;24.10;;;12.10;;
57023;SDS011;42916;54.346;18.562;2023-01-28T16:15:56;24.00;;;10.10;;
57023;SDS011;42916;54.346;18.562;2023-01-28T16:21:10;22.10;;;9.40;;
57023;SDS011;42916;54.346;18.562;2023-01-28T16:26:17;21.80;;;8.90;;
57023;SDS011;42916;54.346;18.562;2023-01-28T16:28:46;20.30;;;8.60;;
57023;SDS011;42916;54.346;18.562;2023-01-28T16:31:13;22.00;;;9.40;;
57023;SDS011;42916;54.346;18.562;2023-01-28T16:33:40;19.10;;;7.90;;
57023;SDS011;42916;54.346;18.562;2023-01-28T16:36:08;23.10;;;9.60;;
57023;SDS011;42916;54.346;18.562;2023-01-28T16:38:38;18.80;;;8.40;;
57023;SDS011;42916;54.346;18.562;2023-01-28T16:41:09;24.20;;;9.90;;
57023;SDS011;42916;54.346;18.562;2023-01-28T16:43:38;26.60;;;11.90;;
57023;SDS011;42916;54.346;18.562;2023-01-28T16:46:07;29.70;;;13.00;;
57023;SDS011;42916;54.346;18.562;2023-01-28T16:48:36;27.60;;;12.70;;
57023;SDS011;42916;54.346;18.562;2023-01-28T16:51:03;30.50;;;12.80;;
57023;SDS011;42916;54.346;18.562;2023-01-28T16:53:31;25.50;;;11.60;;
57023;SDS011;42916;54.346;18.562;2023-01-28T16:55:59;27.00;;;11.80;;
57023;SDS011;42916;54.346;18.562;2023-01-28T16:58:27;24.00;;;10.30;;
57023;SDS011;42916;54.346;18.562;2023-01-28T17:00:54;29.80;;;12.00;;
57023;SDS011;42916;54.346;18.562;2023-01-28T17:03:21;26.70;;;12.10;;
57023;SDS011;42916;54.346;18.562;2023-01-28T17:05:49;32.20;;;14.80;;
57023;SDS011;42916;54.346;18.562;2023-01-28T17:08:15;30.00;;;14.30;;
57023;SDS011;42916;54.346;18.562;2023-01-28T17:10:42;35.80;;;16.40;;
57023;SDS011;42916;54.346;18.562;2023-01-28T17:13:10;36.10;;;16.10;;
57023;SDS011;42916;54.346;18.562;2023-01-28T17:15:37;36.30;;;15.70;;
57023;SDS011;42916;54.346;18.562;2023-01-28T17:18:03;43.80;;;16.90;;
57023;SDS011;42916;54.346;18.562;2023-01-28T17:20:30;41.00;;;19.20;;
57023;SDS011;42916;54.346;18.562;2023-01-28T17:23:02;42.80;;;19.50;;
57023;SDS011;42916;54.346;18.562;2023-01-28T17:25:35;38.60;;;17.10;;
57023;SDS011;42916;54.346;18.562;2023-01-28T17:28:02;34.10;;;17.00;;